Time;durP1;ratioP1;P1;durP2;ratioP2;P2;SDS_P1;SDS_P2;PMS_P1;PMS_P2;Temp;Humidity;BMP_temperature;BMP_pressure;BME280_temperature;BME280_humidity;BME280_pressure;Samples;Min_cycle;Max_cycle;Signal;HPM_P1;HPM_P2
2023/10/02 05:49:48;;;;;;;11.05;5.47;;;15.90;99.90;;;;;;5075172;28;20347;-56
2023/10/02 05:52:18;;;;;;;11.27;5.47;;;16.00;99.90;;;;;;5082596;28;20073;-57
2023/10/02 05:54:53;;;;;;;7.95;4.60;;;16.10;99.90;;;;;;5095944;28;20027;-54
2023/10/02 05:57:19;;;;;;;14.57;5.50;;;16.30;99.90;;;;;;5095649;28;20387;-56
2023/10/02 05:59:48;;;;;;;12.00;5.53;;;16.40;99.90;;;;;;5095815;28;20024;-57
2023/10/02 06:02:19;;;;;;;15.93;5.55;;;16.60;99.90;;;;;;5096050;28;20032;-55
2023/10/02 06:04:52;;;;;;;8.82;5.47;;;16.80;99.90;;;;;;5095712;28;20028;-55
2023/10/02 06:07:40;;;;;;;14.23;6.53;;;16.80;99.90;;;;;;5095936;28;20036;-56
2023/10/02 06:10:08;;;;;;;11.73;5.60;;;17.00;99.90;;;;;;5095765;28;20036;-55
2023/10/02 06:12:43;;;;;;;12.70;6.20;;;17.00;99.90;;;;;;5095661;28;20032;-58
2023/10/02 06:15:43;;;;;;;11.00;5.78;;;16.90;99.90;;;;;;5093523;28;20075;-61
2023/10/02 06:17:58;;;;;;;13.82;5.38;;;17.40;99.90;;;;;;5095604;28;20441;-57
2023/10/02 06:20:24;;;;;;;12.90;7.10;;;17.50;99.90;;;;;;5095278;28;20032;-54
2023/10/02 06:22:51;;;;;;;14.07;7.65;;;17.60;99.90;;;;;;5093839;28;20020;-57
2023/10/02 06:25:20;;;;;;;16.33;6.88;;;17.80;99.90;;;;;;5073663;28;20044;-54
2023/10/02 06:27:47;;;;;;;15.20;6.78;;;17.70;99.90;;;;;;5094513;28;20035;-54
2023/10/02 06:30:19;;;;;;;13.25;6.82;;;18.20;99.90;;;;;;5095167;28;20039;-53
2023/10/02 06:32:54;;;;;;;18.42;7.85;;;18.50;99.90;;;;;;5093442;28;20547;-59
2023/10/02 06:35:21;;;;;;;17.83;7.40;;;;;;;;;;5076310;28;20039;-61
2023/10/02 06:37:51;;;;;;;14.57;7.50;;;;;;;;;;5094193;28;20024;-54
2023/10/02 06:40:21;;;;;;;14.77;6.78;;;20.40;99.90;;;;;;5056567;28;20043;-63
2023/10/02 06:42:52;;;;;;;15.68;6.78;;;20.10;99.90;;;;;;5060240;28;21220;-58
2023/10/02 06:45:20;;;;;;;18.13;6.93;;;20.70;99.90;;;;;;5109288;28;20395;-61
2023/10/02 06:47:50;;;;;;;10.77;5.30;;;21.20;99.90;;;;;;5094560;28;20089;-54
2023/10/02 06:50:32;;;;;;;17.40;6.68;;;;;;;;;;5090195;28;20042;-57
2023/10/02 06:52:59;;;;;;;;;;;;;;;;;;5094511;28;20032;-57
2023/10/02 06:55:26;;;;;;;17.45;6.25;;;22.30;99.90;;;;;;5089813;28;19907;-51
2023/10/02 06:57:56;;;;;;;11.40;5.93;;;22.00;99.90;;;;;;5025394;28;20465;-53
2023/10/02 07:00:23;;;;;;;15.30;6.47;;;;;;;;;;5092858;28;20101;-52
2023/10/02 07:03:03;;;;;;;19.58;7.00;;;;;;;;;;5091315;28;20032;-56
2023/10/02 07:05:32;;;;;;;15.35;6.45;;;;;;;;;;5094120;28;20089;-55
2023/10/02 07:08:01;;;;;;;18.33;6.90;;;22.90;99.90;;;;;;5094560;28;20559;-54
2023/10/02 07:10:29;;;;;;;14.05;5.85;;;;;;;;;;5059340;28;20105;-52
2023/10/02 07:13:18;;;;;;;13.85;5.72;;;;;;;;;;5094255;28;20396;-59
2023/10/02 07:16:05;;;;;;;12.65;6.50;;;;;;;;;;5071592;28;20025;-59
2023/10/02 07:18:58;;;;;;;11.85;6.18;;;;;;;;;;5012360;28;20050;-56
2023/10/02 07:21:40;;;;;;;18.60;6.70;;;24.10;99.90;;;;;;5011528;28;20088;-58
2023/10/02 07:24:25;;;;;;;15.98;6.10;;;;;;;;;;4994599;28;20088;-52
2023/10/02 07:26:51;;;;;;;13.50;6.22;;;;;;;;;;4970360;28;20088;-52
2023/10/02 07:29:19;;;;;;;17.88;6.22;;;;;;;;;;5011854;28;20498;-56
2023/10/02 07:31:48;;;;;;;15.37;5.67;;;;;;;;;;5012135;28;20029;-55
2023/10/02 07:34:15;;;;;;;16.13;5.60;;;25.70;99.90;;;;;;4995697;28;20030;-55
2023/10/02 07:36:45;;;;;;;18.48;4.93;;;;;;;;;;5011456;28;20050;-53
2023/10/02 07:42:00;;;;;;;16.33;5.68;;;;;;;;;;5011650;28;20140;-54
2023/10/02 07:44:47;;;;;;;21.73;5.72;;;;;;;;;;5011745;28;20032;-54
2023/10/02 07:47:16;;;;;;;21.15;5.53;;;;;;;;;;5025679;28;20033;-53
2023/10/02 07:49:48;;;;;;;21.98;6.82;;;;;;;;;;5047895;28;20132;-52
2023/10/02 07:52:29;;;;;;;16.38;6.53;;;;;;;;;;5051346;28;20108;-51
2023/10/02 07:54:58;;;;;;;13.20;5.22;;;24.40;99.90;;;;;;5054562;28;20048;-53
2023/10/02 07:57:42;;;;;;;17.98;5.70;;;24.80;99.90;;;;;;5071089;28;20036;-52
2023/10/02 08:00:33;;;;;;;13.07;5.38;;;25.30;99.90;;;;;;5071000;28;20128;-50
2023/10/02 08:02:55;;;;;;;19.90;5.32;;;;;;;;;;5029640;28;20127;-51
2023/10/02 08:05:21;;;;;;;16.25;5.40;;;;;;;;;;5071028;28;20542;-50
2023/10/02 08:07:47;;;;;;;15.63;6.35;;;;;;;;;;5070801;28;20047;-51
2023/10/02 08:10:16;;;;;;;23.20;9.07;;;24.20;99.90;;;;;;5069904;28;20605;-52
2023/10/02 08:12:54;;;;;;;17.70;5.97;;;;;;;;;;5069821;28;20043;-50
2023/10/02 08:15:26;;;;;;;17.27;6.82;;;23.70;99.90;;;;;;5069381;28;20565;-51
2023/10/02 08:20:31;;;;;;;16.52;7.30;;;23.80;99.90;;;;;;5054538;28;20418;-52
2023/10/02 08:23:02;;;;;;;19.48;7.40;;;24.00;99.90;;;;;;5069945;28;20043;-54
2023/10/02 08:25:27;;;;;;;13.95;6.07;;;24.00;99.90;;;;;;5070855;28;20044;-51
2023/10/02 08:27:57;;;;;;;13.60;6.45;;;;;;;;;;5044310;28;20080;-54
2023/10/02 08:30:27;;;;;;;12.45;6.00;;;;;;;;;;5113560;28;20031;-50
2023/10/02 08:33:08;;;;;;;17.45;6.15;;;24.70;99.90;;;;;;5094805;28;20055;-50
2023/10/02 08:35:37;;;;;;;12.23;5.32;;;24.50;99.90;;;;;;5113661;28;20036;-51
2023/10/02 08:38:21;;;;;;;9.80;4.75;;;24.70;99.90;;;;;;5092997;28;20111;-53
2023/10/02 08:40:57;;;;;;;18.38;6.70;;;24.30;99.90;;;;;;5061119;28;20055;-50
2023/10/02 08:43:24;;;;;;;16.35;6.20;;;24.30;99.90;;;;;;5093231;28;20395;-55
2023/10/02 08:45:50;;;;;;;18.58;6.07;;;24.80;99.90;;;;;;5092850;28;20024;-55
2023/10/02 08:48:19;;;;;;;16.85;7.20;;;24.60;99.90;;;;;;5095748;28;20048;-52
2023/10/02 08:50:49;;;;;;;12.40;6.25;;;24.40;99.90;;;;;;5113401;28;20092;-54
2023/10/02 08:53:22;;;;;;;16.60;6.60;;;24.50;99.90;;;;;;5109971;28;20111;-54
2023/10/02 08:56:24;;;;;;;11.80;5.90;;;24.40;99.90;;;;;;5131416;28;20031;-57
2023/10/02 08:59:15;;;;;;;12.43;4.70;;;24.60;99.90;;;;;;5128271;28;20504;-52
2023/10/02 09:01:37;;;;;;;9.45;5.10;;;24.90;99.90;;;;;;5133150;28;20058;-55
2023/10/02 09:04:22;;;;;;;13.23;5.57;;;24.70;99.90;;;;;;5133760;28;20035;-53
2023/10/02 09:06:58;;;;;;;12.98;5.65;;;24.90;99.90;;;;;;5134027;28;20484;-56
2023/10/02 09:11:57;;;;;;;10.93;5.53;;;;;;;;;;5133724;28;20050;-52
2023/10/02 09:17:07;;;;;;;9.13;5.40;;;26.50;99.90;;;;;;5134278;28;20533;-53
2023/10/02 09:19:37;;;;;;;9.90;5.38;;;27.10;99.90;;;;;;5133682;28;20027;-55
2023/10/02 09:22:07;;;;;;;14.25;5.25;;;28.30;99.90;;;;;;5133958;27;20045;-54
2023/10/02 09:24:40;;;;;;;10.88;6.00;;;29.40;99.20;;;;;;5136932;27;20492;-54
2023/10/02 09:27:27;;;;;;;10.05;5.93;;;;;;;;;;5137398;27;20484;-57
2023/10/02 09:32:51;;;;;;;13.77;6.18;;;;;;;;;;5117051;28;20543;-54
2023/10/02 09:35:22;;;;;;;13.10;6.32;;;;;;;;;;5116458;28;20557;-53
2023/10/02 09:38:06;;;;;;;11.85;5.78;;;;;;;;;;5116410;28;20039;-54
2023/10/02 09:40:54;;;;;;;9.75;5.55;;;;;;;;;;5116553;28;20028;-54
2023/10/02 09:43:33;;;;;;;9.07;5.32;;;28.10;99.90;;;;;;5116374;28;20073;-55
2023/10/02 09:46:15;;;;;;;12.65;6.45;;;27.80;99.90;;;;;;5116560;28;20028;-56
2023/10/02 09:49:09;;;;;;;10.30;5.75;;;27.80;98.90;;;;;;5116858;28;20407;-54
2023/10/02 09:52:15;;;;;;;13.73;7.32;;;27.80;98.80;;;;;;5115825;28;20439;-53
2023/10/02 09:55:02;;;;;;;10.82;6.28;;;27.50;99.10;;;;;;5131017;27;20038;-58
2023/10/02 09:57:34;;;;;;;13.23;5.85;;;27.00;98.90;;;;;;5099696;27;20045;-56
2023/10/02 10:00:33;;;;;;;11.27;5.65;;;;;;;;;;5135186;27;20038;-51
2023/10/02 10:03:14;;;;;;;14.63;6.85;;;;;;;;;;5136384;27;20585;-55
2023/10/02 10:06:05;;;;;;;14.43;5.93;;;;;;;;;;5136938;27;20374;-56
2023/10/02 10:12:29;;;;;;;14.15;6.85;;;;;;;;;;5134057;27;20049;-56
2023/10/02 10:15:23;;;;;;;13.73;6.03;;;;;;;;;;5132893;27;20118;-52
2023/10/02 10:17:49;;;;;;;14.65;6.20;;;;;;;;;;5062842;28;20066;-53
2023/10/02 10:20:22;;;;;;;15.05;7.25;;;;;;;;;;5059902;28;20041;-52
2023/10/02 10:22:55;;;;;;;15.80;6.47;;;29.10;99.90;;;;;;5064001;28;20087;-53
2023/10/02 10:27:58;;;;;;;11.73;6.00;;;;;;;;;;5063576;28;20059;-58
2023/10/02 10:30:33;;;;;;;12.02;6.05;;;28.90;98.00;;;;;;5062128;28;20032;-54
2023/10/02 10:35:57;;;;;;;11.75;6.05;;;30.70;99.90;;;;;;5069294;28;20568;-51
2023/10/02 10:38:26;;;;;;;9.45;5.65;;;;;;;;;;5066876;28;20040;-57
2023/10/02 10:40:55;;;;;;;13.13;6.28;;;;;;;;;;5068500;28;20043;-57
2023/10/02 10:43:26;;;;;;;11.68;5.50;;;;;;;;;;5062472;28;20389;-61
2023/10/02 10:45:55;;;;;;;8.95;5.78;;;;;;;;;;5063260;28;20033;-54
2023/10/02 10:48:22;;;;;;;14.63;7.53;;;;;;;;;;5097341;27;20450;-55
2023/10/02 10:51:06;;;;;;;12.30;6.50;;;;;;;;;;5110683;27;20027;-54
2023/10/02 10:53:33;;;;;;;10.00;5.32;;;29.00;99.90;;;;;;5132191;27;20035;-53
2023/10/02 10:56:17;;;;;;;12.57;6.15;;;;;;;;;;5095964;27;20036;-53
2023/10/02 10:58:47;;;;;;;10.30;5.53;;;28.70;99.90;;;;;;5126776;27;20208;-51
2023/10/02 11:01:17;;;;;;;12.65;5.80;;;28.00;97.20;;;;;;5096713;27;20054;-57
2023/10/02 11:03:44;;;;;;;11.32;6.32;;;;;;;;;;5123598;27;20024;-52
2023/10/02 11:06:11;;;;;;;11.10;5.47;;;27.80;98.20;;;;;;5123369;27;20458;-53
2023/10/02 11:08:38;;;;;;;14.27;7.57;;;27.70;99.90;;;;;;5077363;27;20042;-53
2023/10/02 11:11:06;;;;;;;10.55;5.68;;;28.30;99.90;;;;;;5132905;27;20565;-54
2023/10/02 11:13:51;;;;;;;11.38;6.90;;;28.30;99.90;;;;;;5132819;27;20500;-51
2023/10/02 11:16:32;;;;;;;11.45;6.32;;;28.80;99.00;;;;;;5147575;27;20018;-56
2023/10/02 11:22:01;;;;;;;12.38;6.55;;;28.20;97.60;;;;;;5134313;27;20383;-54
2023/10/02 11:24:28;;;;;;;14.57;6.80;;;;;;;;;;5130403;27;20080;-55
2023/10/02 11:27:04;;;;;;;13.45;5.13;;;;;;;;;;5133899;27;20309;-56
2023/10/02 11:30:00;;;;;;;12.73;6.53;;;27.00;99.90;;;;;;5074233;27;20038;-58
2023/10/02 11:32:23;;;;;;;10.85;5.50;;;26.70;98.80;;;;;;5138034;27;20075;-53
2023/10/02 11:34:50;;;;;;;12.40;5.97;;;26.80;98.60;;;;;;5129196;27;20427;-61
2023/10/02 11:37:17;;;;;;;11.27;5.78;;;;;;;;;;5073424;27;20031;-59
2023/10/02 11:39:44;;;;;;;12.10;6.50;;;26.30;98.60;;;;;;5132952;27;20038;-58
2023/10/02 11:42:10;;;;;;;13.13;6.53;;;26.30;99.60;;;;;;5140140;27;20087;-51
2023/10/02 11:44:39;;;;;;;11.73;6.15;;;26.40;99.10;;;;;;5142857;27;21053;-56
2023/10/02 11:47:09;;;;;;;12.65;5.80;;;26.30;98.60;;;;;;5140254;27;20047;-57
2023/10/02 11:49:36;;;;;;;11.18;5.85;;;26.40;98.50;;;;;;5132947;27;20058;-55
2023/10/02 11:52:03;;;;;;;12.90;6.45;;;26.40;98.40;;;;;;5141981;27;20067;-54
2023/10/02 11:54:30;;;;;;;9.75;5.57;;;26.40;99.10;;;;;;5078300;27;20121;-54
2023/10/02 11:56:57;;;;;;;14.05;6.18;;;26.20;98.70;;;;;;5135910;27;20046;-54
2023/10/02 11:59:23;;;;;;;10.52;5.95;;;26.10;98.50;;;;;;5085890;27;20045;-54
2023/10/02 12:01:49;;;;;;;11.05;5.72;;;25.70;98.70;;;;;;5132703;27;20373;-56
2023/10/02 12:04:15;;;;;;;13.80;6.10;;;25.40;99.00;;;;;;5082623;27;20031;-53
2023/10/02 12:06:41;;;;;;;10.48;5.95;;;25.60;99.90;;;;;;5138878;27;20059;-55
2023/10/02 12:09:07;;;;;;;14.85;5.97;;;25.80;99.70;;;;;;5130228;27;20168;-54
2023/10/02 12:11:34;;;;;;;12.75;5.95;;;26.30;99.90;;;;;;5130623;27;20083;-54
2023/10/02 12:14:02;;;;;;;9.15;5.35;;;26.80;99.10;;;;;;5071968;28;20047;-55
2023/10/02 12:16:28;;;;;;;12.98;6.75;;;27.40;99.40;;;;;;5048793;28;20063;-55
2023/10/02 12:18:54;;;;;;;17.33;5.90;;;;;;;;;;5048049;28;20025;-55
2023/10/02 12:21:21;;;;;;;13.75;5.78;;;;;;;;;;5050414;28;20047;-53
2023/10/02 12:23:48;;;;;;;10.88;6.53;;;;;;;;;;5047618;28;20033;-56
2023/10/02 12:26:15;;;;;;;10.65;4.70;;;;;;;;;;5047876;28;20045;-54
2023/10/02 12:28:42;;;;;;;9.88;5.90;;;27.60;97.40;;;;;;5050553;28;20043;-57
2023/10/02 12:31:13;;;;;;;8.82;5.40;;;27.50;97.90;;;;;;5049720;28;20041;-57
2023/10/02 12:33:43;;;;;;;10.02;5.40;;;27.30;98.20;;;;;;5047234;28;20060;-59
2023/10/02 12:36:18;;;;;;;9.00;5.22;;;27.40;97.20;;;;;;5046174;28;20469;-53
2023/10/02 12:38:45;;;;;;;10.82;5.65;;;27.30;97.70;;;;;;5053646;28;20441;-54
2023/10/02 12:41:15;;;;;;;9.73;5.55;;;27.10;98.00;;;;;;5045137;28;20069;-55
2023/10/02 12:43:45;;;;;;;9.25;5.25;;;26.80;98.00;;;;;;5051441;28;20025;-54
2023/10/02 12:46:15;;;;;;;10.30;6.25;;;26.20;98.00;;;;;;5064036;28;20040;-54
2023/10/02 12:48:46;;;;;;;11.35;5.35;;;26.00;98.40;;;;;;5072318;28;20067;-54
2023/10/02 12:51:15;;;;;;;11.20;4.82;;;25.80;98.30;;;;;;5097801;27;20047;-54
2023/10/02 12:53:45;;;;;;;8.68;5.47;;;25.60;98.10;;;;;;5131990;27;20112;-50
2023/10/02 12:56:15;;;;;;;9.40;4.78;;;25.50;98.60;;;;;;5134899;27;20027;-56
2023/10/02 12:58:41;;;;;;;8.98;5.43;;;25.50;98.00;;;;;;5134887;27;20390;-56
2023/10/02 13:01:13;;;;;;;11.25;6.30;;;25.70;98.40;;;;;;5131280;27;20036;-56
2023/10/02 13:03:42;;;;;;;8.85;5.25;;;25.60;98.60;;;;;;5146100;27;20031;-54
2023/10/02 13:06:11;;;;;;;9.95;6.63;;;25.50;98.60;;;;;;5145069;27;20081;-54
2023/10/02 13:08:40;;;;;;;8.73;6.28;;;25.50;99.10;;;;;;5148965;27;20030;-54
2023/10/02 13:11:18;;;;;;;9.10;6.50;;;25.60;99.20;;;;;;5136624;27;20416;-56
2023/10/02 13:13:46;;;;;;;14.25;6.10;;;25.70;99.40;;;;;;5088836;27;20411;-57
2023/10/02 13:16:13;;;;;;;13.02;6.57;;;25.70;98.90;;;;;;5134949;27;20474;-52
2023/10/02 13:18:39;;;;;;;26.08;16.00;;;25.70;98.60;;;;;;5136160;27;20027;-58
2023/10/02 13:21:09;;;;;;;32.47;18.48;;;25.70;98.70;;;;;;5112878;27;20090;-58
2023/10/02 13:23:37;;;;;;;16.13;8.35;;;25.80;98.90;;;;;;5118199;27;20039;-55
2023/10/02 13:26:05;;;;;;;10.68;5.25;;;25.70;98.70;;;;;;5120091;27;20127;-58
2023/10/02 13:28:31;;;;;;;13.10;5.90;;;25.70;99.00;;;;;;5113408;27;20476;-55
2023/10/02 13:30:56;;;;;;;10.90;6.10;;;25.70;99.20;;;;;;5065635;28;20063;-56
2023/10/02 13:33:23;;;;;;;12.68;6.20;;;26.00;99.10;;;;;;5111187;27;20066;-57
2023/10/02 13:35:57;;;;;;;10.85;5.95;;;26.20;98.80;;;;;;5112798;27;20130;-54
2023/10/02 13:38:24;;;;;;;11.23;5.53;;;26.50;98.30;;;;;;5119274;27;20045;-55
2023/10/02 13:40:50;;;;;;;9.63;5.90;;;26.40;98.50;;;;;;5116629;27;20131;-54
2023/10/02 13:43:17;;;;;;;8.77;5.53;;;26.50;98.00;;;;;;5112838;27;20122;-56
2023/10/02 13:45:45;;;;;;;13.73;6.78;;;27.00;98.10;;;;;;5111139;27;20043;-56
2023/10/02 13:48:13;;;;;;;10.52;6.53;;;27.40;99.90;;;;;;5046097;28;20071;-56
2023/10/02 13:50:38;;;;;;;10.57;5.90;;;27.20;99.90;;;;;;5106862;28;20040;-55
2023/10/02 13:53:05;;;;;;;9.85;5.55;;;27.00;99.90;;;;;;5077914;28;20513;-56
2023/10/02 13:55:35;;;;;;;8.77;5.10;;;26.70;99.90;;;;;;5112659;27;20118;-56
2023/10/02 13:58:01;;;;;;;9.93;4.95;;;26.60;97.70;;;;;;5113686;27;20398;-55
2023/10/02 14:00:35;;;;;;;15.93;7.00;;;26.30;97.60;;;;;;5112454;28;20096;-57
2023/10/02 14:03:03;;;;;;;10.68;5.65;;;26.30;97.70;;;;;;5102431;28;20452;-56
2023/10/02 14:05:29;;;;;;;10.80;6.15;;;26.20;98.10;;;;;;5093038;28;20111;-58
2023/10/02 14:07:54;;;;;;;11.75;5.93;;;26.30;98.00;;;;;;5108766;28;20110;-57
2023/10/02 14:10:21;;;;;;;12.55;5.97;;;26.20;97.60;;;;;;5112898;28;20102;-56
2023/10/02 14:12:47;;;;;;;16.92;7.45;;;26.20;97.50;;;;;;5109164;28;20024;-57
2023/10/02 14:15:16;;;;;;;10.38;5.60;;;26.30;98.10;;;;;;5066774;27;20036;-55
2023/10/02 14:17:46;;;;;;;13.40;6.05;;;26.20;98.00;;;;;;5114939;27;20043;-55
2023/10/02 14:20:15;;;;;;;9.95;5.80;;;26.20;97.70;;;;;;5110581;27;20028;-58
2023/10/02 14:22:47;;;;;;;11.40;5.38;;;26.10;97.90;;;;;;5105668;28;20451;-58
2023/10/02 14:25:23;;;;;;;11.90;5.35;;;25.80;97.90;;;;;;5118251;27;20032;-55
2023/10/02 14:27:50;;;;;;;9.07;5.35;;;26.00;98.30;;;;;;5096238;28;20479;-56
2023/10/02 14:30:17;;;;;;;13.23;5.82;;;25.90;98.30;;;;;;5085008;28;20147;-57
2023/10/02 14:32:49;;;;;;;12.23;6.05;;;26.00;98.60;;;;;;5113476;27;20038;-55
2023/10/02 14:35:19;;;;;;;14.98;6.82;;;25.90;98.60;;;;;;5110313;27;20062;-57
2023/10/02 14:37:48;;;;;;;8.75;5.07;;;26.00;98.80;;;;;;5110593;28;20039;-55
2023/10/02 14:40:29;;;;;;;10.63;6.18;;;26.00;98.20;;;;;;5112935;28;20038;-57
2023/10/02 14:43:02;;;;;;;9.40;5.80;;;25.80;99.10;;;;;;5112343;28;20031;-57
2023/10/02 14:45:33;;;;;;;16.60;7.05;;;25.70;98.60;;;;;;5110848;27;20050;-54
2023/10/02 14:48:01;;;;;;;16.65;9.00;;;25.70;98.90;;;;;;5112542;27;20035;-55
2023/10/02 14:50:29;;;;;;;11.55;5.95;;;;;;;;;;5132231;27;20037;-56
2023/10/02 14:52:56;;;;;;;10.60;6.05;;;25.50;98.60;;;;;;5133268;27;20089;-57
2023/10/02 14:55:27;;;;;;;10.52;6.20;;;25.20;99.00;;;;;;5130212;27;20041;-55
2023/10/02 15:09:40;;;;;;;11.38;6.43;;;25.40;99.90;;;;;;5403152;22;1380752;-54
2023/10/02 15:12:07;;;;;;;17.88;6.78;;;25.80;98.60;;;;;;5053653;28;20052;-55
2023/10/02 15:14:35;;;;;;;14.95;7.10;;;25.90;99.10;;;;;;5075989;28;20055;-58
2023/10/02 15:17:04;;;;;;;10.45;5.90;;;25.80;98.80;;;;;;5028928;28;20074;-53
2023/10/02 15:19:32;;;;;;;17.08;6.68;;;25.90;98.80;;;;;;5045056;28;20527;-57
2023/10/02 15:21:58;;;;;;;12.65;7.00;;;26.10;98.80;;;;;;5079922;28;20101;-56
2023/10/02 15:24:24;;;;;;;12.65;7.28;;;26.10;99.20;;;;;;5081159;28;20026;-58
2023/10/02 15:26:50;;;;;;;13.00;6.60;;;26.00;98.60;;;;;;5081410;28;20071;-55
2023/10/02 15:29:16;;;;;;;11.38;6.93;;;25.90;98.60;;;;;;5083138;28;20029;-57
2023/10/02 15:31:43;;;;;;;17.40;7.50;;;25.70;98.70;;;;;;5063799;28;20400;-54
2023/10/02 15:34:11;;;;;;;16.15;7.75;;;25.80;98.80;;;;;;5087058;28;20048;-56
2023/10/02 15:36:37;;;;;;;19.08;9.35;;;25.70;99.00;;;;;;5080595;28;20039;-55
2023/10/02 15:39:04;;;;;;;17.67;9.25;;;25.70;98.80;;;;;;5082225;28;20048;-56
2023/10/02 15:41:31;;;;;;;14.73;7.70;;;25.70;98.70;;;;;;5050478;28;20040;-56
2023/10/02 15:43:57;;;;;;;16.85;6.72;;;25.60;98.80;;;;;;5086191;28;20064;-54
2023/10/02 15:46:25;;;;;;;11.85;5.90;;;25.60;98.70;;;;;;5061184;28;20086;-54
2023/10/02 15:48:52;;;;;;;12.23;6.38;;;25.60;98.70;;;;;;5083759;28;20039;-54
2023/10/02 15:51:17;;;;;;;12.30;7.05;;;25.60;98.80;;;;;;5086726;28;20036;-60
2023/10/02 15:53:46;;;;;;;13.80;7.13;;;25.60;99.10;;;;;;5074840;28;20060;-53
2023/10/02 15:56:15;;;;;;;21.23;7.82;;;25.40;99.00;;;;;;5081058;28;20496;-57
2023/10/02 15:58:41;;;;;;;14.82;7.75;;;25.30;99.20;;;;;;5086240;28;20487;-57
2023/10/02 16:01:08;;;;;;;13.60;6.53;;;25.10;99.20;;;;;;5020661;28;20679;-55
2023/10/02 16:03:34;;;;;;;13.23;6.95;;;25.00;99.10;;;;;;5022156;28;20037;-57
2023/10/02 16:06:02;;;;;;;16.70;6.10;;;24.80;99.40;;;;;;5005191;28;20037;-52
2023/10/02 16:08:28;;;;;;;13.93;7.20;;;24.70;99.50;;;;;;5020761;28;20048;-57
2023/10/02 16:10:55;;;;;;;12.18;6.57;;;24.60;99.60;;;;;;5006660;28;20054;-57
2023/10/02 16:13:22;;;;;;;14.30;6.28;;;24.60;99.80;;;;;;5006869;28;20436;-54
2023/10/02 16:15:48;;;;;;;15.73;7.72;;;24.50;99.80;;;;;;5000578;28;20088;-57
2023/10/02 16:18:14;;;;;;;23.95;7.85;;;24.40;99.90;;;;;;5010146;28;20492;-56
2023/10/02 16:20:40;;;;;;;16.45;8.65;;;;;;;;;;4978753;28;20386;-53
2023/10/02 16:23:06;;;;;;;17.70;9.05;;;;;;;;;;4989396;28;20493;-53
2023/10/02 16:25:33;;;;;;;22.90;8.82;;;;;;;;;;5005382;28;20037;-55
2023/10/02 16:28:00;;;;;;;15.98;8.63;;;24.10;99.90;;;;;;4987345;28;20053;-55
2023/10/02 16:30:26;;;;;;;15.60;8.25;;;24.20;99.90;;;;;;4992867;28;20046;-54
2023/10/02 16:32:53;;;;;;;22.48;10.05;;;24.20;99.90;;;;;;5053553;28;20060;-53
2023/10/02 16:35:26;;;;;;;18.15;11.10;;;24.20;99.90;;;;;;5071549;28;20106;-52
2023/10/02 16:37:52;;;;;;;25.38;13.00;;;24.10;99.90;;;;;;5069253;28;20044;-55
2023/10/02 16:40:17;;;;;;;18.15;10.13;;;24.00;99.90;;;;;;5069630;28;20024;-55
2023/10/02 16:42:44;;;;;;;13.93;7.38;;;24.00;99.90;;;;;;5070430;28;20486;-52
2023/10/02 16:45:11;;;;;;;18.77;9.52;;;;;;;;;;5067664;28;20056;-56
2023/10/02 16:47:40;;;;;;;17.88;7.47;;;23.90;99.90;;;;;;5051031;28;20161;-56
2023/10/02 16:50:10;;;;;;;19.92;10.10;;;23.80;99.90;;;;;;5019266;28;20036;-54
2023/10/02 16:52:37;;;;;;;14.30;8.68;;;23.80;99.90;;;;;;5049121;28;20082;-52
2023/10/02 16:55:03;;;;;;;15.57;7.25;;;23.70;99.90;;;;;;5069488;28;20498;-53
2023/10/02 16:57:32;;;;;;;19.67;8.68;;;23.70;99.90;;;;;;5071058;28;20040;-53
2023/10/02 16:59:58;;;;;;;23.95;8.95;;;;;;;;;;5066306;28;20063;-56
2023/10/02 17:02:25;;;;;;;17.30;6.95;;;23.60;99.90;;;;;;5068771;28;20033;-58
2023/10/02 17:04:51;;;;;;;17.90;8.65;;;23.30;99.90;;;;;;5070800;28;20054;-53
2023/10/02 17:07:17;;;;;;;17.08;9.10;;;;;;;;;;5071091;28;20091;-55
2023/10/02 17:09:46;;;;;;;13.48;8.73;;;24.40;99.90;;;;;;5069241;28;20033;-57
2023/10/02 17:12:15;;;;;;;22.27;9.35;;;;;;;;;;4997546;28;20546;-53
2023/10/02 17:14:42;;;;;;;21.77;10.88;;;23.00;99.90;;;;;;5046274;28;20128;-56
2023/10/02 17:17:08;;;;;;;33.63;15.40;;;22.80;99.90;;;;;;5062871;28;20670;-53
2023/10/02 17:19:36;;;;;;;32.20;16.08;;;;;;;;;;5047767;28;20073;-56
2023/10/02 17:22:02;;;;;;;30.95;16.27;;;22.70;99.90;;;;;;5067386;28;20025;-56
2023/10/02 17:24:28;;;;;;;39.28;18.02;;;22.70;99.90;;;;;;5065009;28;20039;-56
2023/10/02 17:26:55;;;;;;;41.42;18.63;;;;;;;;;;5071353;28;20025;-54
2023/10/02 17:29:22;;;;;;;31.75;15.50;;;;;;;;;;5067847;28;20028;-57
2023/10/02 17:31:49;;;;;;;21.42;11.68;;;;;;;;;;5067647;28;20103;-55
2023/10/02 17:34:15;;;;;;;30.75;13.77;;;22.20;99.90;;;;;;5067754;28;20029;-56
2023/10/02 17:36:41;;;;;;;43.40;15.50;;;22.10;99.90;;;;;;5066238;28;20035;-59
2023/10/02 17:39:08;;;;;;;29.17;14.10;;;22.20;99.90;;;;;;5016518;28;20072;-59
2023/10/02 17:41:34;;;;;;;32.22;15.52;;;22.20;99.90;;;;;;5070981;28;20036;-55
2023/10/02 17:44:01;;;;;;;28.08;14.30;;;;;;;;;;5069753;28;20463;-60
2023/10/02 17:46:26;;;;;;;32.45;13.95;;;22.10;99.90;;;;;;5066410;28;20028;-59
2023/10/02 17:48:53;;;;;;;28.05;13.10;;;22.10;99.90;;;;;;5051735;28;20102;-59
2023/10/02 17:51:20;;;;;;;31.00;13.68;;;21.90;99.90;;;;;;5049793;28;20024;-56
2023/10/02 17:53:48;;;;;;;32.33;14.73;;;;;;;;;;5050311;28;20424;-58
2023/10/02 17:56:14;;;;;;;30.60;12.98;;;21.60;99.90;;;;;;5047865;28;20044;-54
2023/10/02 17:58:41;;;;;;;22.63;12.48;;;21.30;99.90;;;;;;5050408;28;20028;-57
2023/10/02 18:01:07;;;;;;;22.33;12.02;;;21.30;99.90;;;;;;5066737;28;20041;-57
2023/10/02 18:03:37;;;;;;;20.15;13.02;;;21.20;99.90;;;;;;5042405;28;20569;-56
2023/10/02 18:06:19;;;;;;;19.52;11.82;;;21.20;99.90;;;;;;5061737;28;20033;-57
2023/10/02 18:08:47;;;;;;;19.63;10.38;;;;;;;;;;5008416;28;20037;-59
2023/10/02 18:11:14;;;;;;;16.08;9.27;;;;;;;;;;5009509;28;20050;-54
2023/10/02 18:13:40;;;;;;;17.73;10.05;;;;;;;;;;4990877;28;20080;-55
2023/10/02 18:16:08;;;;;;;17.67;10.00;;;;;;;;;;5009710;28;20055;-57
2023/10/02 18:18:34;;;;;;;18.23;10.85;;;20.70;99.90;;;;;;4972087;28;20058;-54
2023/10/02 18:21:04;;;;;;;18.88;9.93;;;20.70;99.90;;;;;;4992347;28;20030;-58
2023/10/02 18:23:33;;;;;;;19.95;9.40;;;20.70;99.90;;;;;;5010384;28;20042;-58
2023/10/02 18:26:04;;;;;;;16.52;8.93;;;20.70;99.90;;;;;;5007752;28;20080;-55
2023/10/02 18:28:32;;;;;;;20.42;10.60;;;20.80;99.90;;;;;;5006483;28;20049;-56
2023/10/02 18:31:04;;;;;;;14.90;9.82;;;20.80;99.90;;;;;;5009634;28;20071;-56
2023/10/02 18:33:38;;;;;;;16.40;10.15;;;;;;;;;;5008651;28;20046;-58
2023/10/02 18:36:05;;;;;;;16.92;9.77;;;;;;;;;;4992500;28;20034;-56
2023/10/02 18:38:34;;;;;;;16.55;10.75;;;;;;;;;;4963919;28;20042;-55
2023/10/02 18:41:01;;;;;;;18.17;10.75;;;;;;;;;;5051239;28;20032;-57
2023/10/02 18:43:28;;;;;;;17.30;11.35;;;;;;;;;;5064493;28;20028;-54
2023/10/02 18:45:59;;;;;;;20.83;11.73;;;20.20;99.90;;;;;;5072165;28;20119;-55
2023/10/02 18:48:27;;;;;;;24.83;12.07;;;;;;;;;;5068159;28;20028;-55
2023/10/02 18:50:54;;;;;;;25.02;13.95;;;19.90;99.90;;;;;;5070075;28;20070;-59
2023/10/02 18:53:21;;;;;;;23.77;10.13;;;19.70;99.90;;;;;;5060841;28;20050;-54
2023/10/02 18:55:57;;;;;;;21.25;12.02;;;19.60;99.90;;;;;;5035327;28;20119;-57
2023/10/02 18:58:26;;;;;;;25.17;13.57;;;19.50;99.90;;;;;;5045507;28;20081;-56
2023/10/02 19:00:53;;;;;;;23.50;12.07;;;19.40;99.90;;;;;;5051796;28;20040;-57
2023/10/02 19:03:40;;;;;;;22.45;12.43;;;19.40;99.90;;;;;;5045969;28;20493;-58
2023/10/02 19:06:12;;;;;;;20.67;11.80;;;19.40;99.90;;;;;;4990424;28;20060;-55
2023/10/02 19:08:48;;;;;;;23.52;11.57;;;19.50;99.90;;;;;;4985077;28;20126;-53
2023/10/02 19:11:24;;;;;;;23.70;11.98;;;19.30;99.90;;;;;;4988307;28;20042;-56
2023/10/02 19:13:52;;;;;;;26.55;13.25;;;19.30;99.90;;;;;;4971331;28;20030;-56
2023/10/02 19:16:27;;;;;;;22.13;12.40;;;19.30;99.90;;;;;;4960942;28;20039;-55
2023/10/02 19:18:55;;;;;;;19.17;11.48;;;19.40;99.90;;;;;;4968987;28;20054;-54
2023/10/02 19:21:23;;;;;;;21.83;11.90;;;19.30;99.90;;;;;;4960850;28;20038;-57
2023/10/02 19:23:53;;;;;;;17.20;10.88;;;19.30;99.90;;;;;;4970822;28;20034;-56
2023/10/02 19:26:21;;;;;;;16.50;9.85;;;19.40;99.90;;;;;;4962652;28;20031;-58
2023/10/02 19:28:47;;;;;;;16.63;10.82;;;19.30;99.90;;;;;;4958857;28;20043;-57
2023/10/02 19:31:13;;;;;;;19.90;10.48;;;19.30;99.90;;;;;;4954715;28;20062;-55
2023/10/02 19:33:39;;;;;;;17.55;8.85;;;19.20;99.90;;;;;;4948290;28;20042;-59
2023/10/02 19:36:06;;;;;;;15.30;9.57;;;19.10;99.90;;;;;;4957348;28;20153;-56
2023/10/02 19:38:36;;;;;;;16.45;9.73;;;19.00;99.90;;;;;;4966232;28;20041;-55
2023/10/02 19:41:14;;;;;;;16.02;8.82;;;18.90;99.90;;;;;;4967516;28;20049;-59
2023/10/02 19:43:42;;;;;;;17.85;9.40;;;18.80;99.90;;;;;;5007136;28;20046;-59
2023/10/02 19:46:12;;;;;;;19.95;9.82;;;;;;;;;;5015012;28;20076;-56